createdAt,value
2023-03-04T00:02:22.853Z,54.03
2023-03-04T00:04:49.893Z,56.35
2023-03-04T00:07:18.822Z,54.10
2023-03-04T00:09:46.939Z,55.83
2023-03-04T00:12:14.027Z,57.28
2023-03-04T00:14:41.380Z,57.05
2023-03-04T00:17:09.012Z,56.95
2023-03-04T00:19:35.893Z,52.92
2023-03-04T00:22:04.513Z,55.28
2023-03-04T00:24:32.201Z,55.47
2023-03-04T00:26:59.111Z,55.75
2023-03-04T00:29:26.080Z,52.35
2023-03-04T00:31:53.161Z,57.08
2023-03-04T00:34:20.712Z,53.47
2023-03-04T00:36:47.832Z,54.85
2023-03-04T00:39:15.923Z,50.88
2023-03-04T00:41:42.914Z,50.17
2023-03-04T00:44:09.821Z,48.13
2023-03-04T00:46:36.755Z,47.80
2023-03-04T00:49:04.161Z,52.13
2023-03-04T00:51:31.174Z,54.03
2023-03-04T00:54:00.710Z,55.85
2023-03-04T00:56:28.028Z,55.75
2023-03-04T00:58:55.211Z,54.65
2023-03-04T01:01:22.252Z,54.08
2023-03-04T01:03:49.145Z,57.30
2023-03-04T01:06:16.627Z,53.25
2023-03-04T01:08:44.914Z,56.33
2023-03-04T01:11:12.094Z,56.40
2023-03-04T01:13:39.750Z,54.50
2023-03-04T01:16:07.523Z,54.72
2023-03-04T01:18:34.437Z,56.13
2023-03-04T01:21:03.018Z,56.78
2023-03-04T01:23:29.996Z,54.10
2023-03-04T01:25:56.939Z,59.13
2023-03-04T01:28:25.308Z,55.05
2023-03-04T01:30:52.382Z,55.45
2023-03-04T01:33:19.317Z,57.38
2023-03-04T01:35:46.281Z,52.85
2023-03-04T01:38:13.267Z,51.78
2023-03-04T01:40:40.702Z,49.55
2023-03-04T01:43:08.013Z,50.72
2023-03-04T01:45:35.773Z,48.55
2023-03-04T01:48:02.917Z,48.70
2023-03-04T01:50:35.569Z,46.20
2023-03-04T01:53:04.040Z,46.30
2023-03-04T01:55:31.237Z,47.47
2023-03-04T01:57:58.294Z,47.78
2023-03-04T02:00:34.045Z,48.15
2023-03-04T02:03:11.459Z,51.78
2023-03-04T02:05:42.162Z,51.10
2023-03-04T02:08:10.558Z,51.10
2023-03-04T02:10:38.303Z,52.38
2023-03-04T02:13:06.187Z,54.50
2023-03-04T02:15:33.628Z,53.92
2023-03-04T02:18:01.328Z,51.00
2023-03-04T02:20:35.132Z,52.83
2023-03-04T02:23:27.957Z,53.20
2023-03-04T02:26:13.331Z,54.83
2023-03-04T02:28:40.897Z,54.22
2023-03-04T02:31:30.272Z,54.03
2023-03-04T02:34:00.723Z,55.17
2023-03-04T02:36:28.975Z,55.10
2023-03-04T02:39:00.692Z,50.00
2023-03-04T02:41:30.493Z,50.20
2023-03-04T02:43:58.778Z,49.92
2023-03-04T02:46:27.380Z,51.42
2023-03-04T02:48:54.380Z,54.28
2023-03-04T02:51:21.923Z,50.40
2023-03-04T02:53:48.683Z,50.90
2023-03-04T02:56:15.837Z,54.17
2023-03-04T02:58:42.734Z,54.08
2023-03-04T03:01:11.401Z,54.03
2023-03-04T03:03:38.295Z,53.55
2023-03-04T03:06:05.448Z,56.00
2023-03-04T03:08:32.254Z,52.08
2023-03-04T03:11:01.188Z,53.45
2023-03-04T03:13:30.208Z,52.75
2023-03-04T03:15:57.324Z,52.28
2023-03-04T03:18:24.935Z,53.17
2023-03-04T03:20:52.182Z,51.35
2023-03-04T03:23:20.938Z,52.42
2023-03-04T03:25:47.913Z,52.28
2023-03-04T03:28:14.878Z,53.95
2023-03-04T03:30:42.151Z,49.97
2023-03-04T03:33:08.931Z,52.50
2023-03-04T03:35:36.795Z,53.85
2023-03-04T03:38:03.831Z,54.75
2023-03-04T03:40:30.584Z,50.78
2023-03-04T03:42:57.449Z,53.75
2023-03-04T03:45:24.241Z,52.35
2023-03-04T03:47:51.033Z,56.47
2023-03-04T03:50:18.010Z,56.95
2023-03-04T03:52:44.936Z,55.78
2023-03-04T03:55:11.971Z,54.08
2023-03-04T03:57:38.846Z,51.28
2023-03-04T04:00:07.761Z,57.25
2023-03-04T04:02:40.334Z,56.20
2023-03-04T04:05:09.078Z,56.72
2023-03-04T04:07:37.258Z,62.25
2023-03-04T04:10:05.611Z,54.65
2023-03-04T04:12:32.580Z,57.08
2023-03-04T04:14:59.655Z,57.65
2023-03-04T04:17:26.593Z,53.55
2023-03-04T04:19:53.536Z,55.63
2023-03-04T04:22:21.522Z,53.72
2023-03-04T04:24:49.232Z,51.10
2023-03-04T04:27:16.327Z,52.85
2023-03-04T04:29:43.094Z,58.20
2023-03-04T04:32:13.217Z,54.15
2023-03-04T04:34:40.177Z,56.17
2023-03-04T04:37:07.191Z,52.33
2023-03-04T04:39:34.684Z,58.75
2023-03-04T04:42:01.684Z,58.70
2023-03-04T04:44:28.580Z,58.55
2023-03-04T04:46:55.340Z,55.92
2023-03-04T04:49:22.195Z,55.60
2023-03-04T04:51:51.227Z,54.53
2023-03-04T04:54:18.050Z,53.33
2023-03-04T04:56:44.949Z,50.08
2023-03-04T04:59:11.812Z,51.55
2023-03-04T05:01:38.800Z,53.55
2023-03-04T05:04:05.677Z,52.25
2023-03-04T05:06:32.812Z,52.33
2023-03-04T05:08:59.670Z,56.83
2023-03-04T05:11:26.919Z,60.22
2023-03-04T05:13:53.947Z,57.88
2023-03-04T05:16:20.875Z,59.67
2023-03-04T05:18:47.719Z,61.63
2023-03-04T05:21:14.758Z,61.63
2023-03-04T05:23:43.408Z,62.47
2023-03-04T05:26:13.451Z,61.53
2023-03-04T05:28:40.333Z,65.50
2023-03-04T05:31:07.412Z,65.95
2023-03-04T05:33:35.026Z,68.68
2023-03-04T05:36:02.783Z,70.22
2023-03-04T05:38:29.788Z,66.82
2023-03-04T05:40:59.302Z,68.75
2023-03-04T05:43:27.839Z,64.57
2023-03-04T05:45:55.598Z,65.82
2023-03-04T05:48:23.048Z,63.67
2023-03-04T05:50:57.628Z,68.28
2023-03-04T05:53:25.135Z,61.15
2023-03-04T05:55:52.341Z,61.05
2023-03-04T05:58:19.932Z,64.82
2023-03-04T06:00:47.278Z,62.65
2023-03-04T06:03:19.821Z,62.15
2023-03-04T06:05:47.091Z,59.78
2023-03-04T06:08:14.600Z,62.58
2023-03-04T06:10:42.180Z,65.65
2023-03-04T06:13:10.115Z,63.10
2023-03-04T06:15:38.333Z,63.95
2023-03-04T06:18:05.934Z,57.88
2023-03-04T06:20:33.827Z,62.65
2023-03-04T06:23:00.703Z,67.13
2023-03-04T06:25:27.691Z,71.15
2023-03-04T06:27:55.294Z,69.07
2023-03-04T06:30:22.830Z,65.10
2023-03-04T06:32:49.844Z,63.78
2023-03-04T06:35:17.409Z,57.92
2023-03-04T06:37:44.485Z,58.90
2023-03-04T06:40:11.982Z,53.83
2023-03-04T06:42:40.404Z,54.97
2023-03-04T06:45:08.277Z,52.75
2023-03-04T06:47:35.331Z,52.08
2023-03-04T06:50:03.688Z,50.42
2023-03-04T06:52:30.464Z,53.42
2023-03-04T06:54:57.436Z,53.13
2023-03-04T06:57:24.332Z,50.22
2023-03-04T06:59:51.485Z,38.95
2023-03-04T07:02:18.475Z,34.65
2023-03-04T07:04:45.330Z,34.72
2023-03-04T07:07:12.340Z,34.78
2023-03-04T07:09:39.344Z,33.17
2023-03-04T07:12:06.334Z,36.75
2023-03-04T07:14:33.394Z,36.90
2023-03-04T07:17:00.372Z,33.78
2023-03-04T07:19:27.395Z,31.77
2023-03-04T07:21:54.512Z,31.83
2023-03-04T07:24:21.638Z,31.17
2023-03-04T07:26:48.447Z,31.38
2023-03-04T07:29:15.361Z,32.53
2023-03-04T07:31:42.579Z,32.53
2023-03-04T07:34:13.103Z,34.45
2023-03-04T07:36:40.603Z,30.95
2023-03-04T07:39:08.376Z,31.45
2023-03-04T07:41:38.015Z,30.80
2023-03-04T07:44:07.062Z,29.92
2023-03-04T07:46:34.382Z,28.88
2023-03-04T07:49:01.151Z,29.48
2023-03-04T07:51:28.344Z,29.75
2023-03-04T07:53:58.918Z,29.25
2023-03-04T07:56:28.592Z,30.10
2023-03-04T07:58:56.438Z,30.13
2023-03-04T08:01:26.331Z,29.45
2023-03-04T08:03:53.661Z,27.90
2023-03-04T08:06:22.011Z,28.98
2023-03-04T08:08:49.553Z,28.75
2023-03-04T08:11:20.774Z,29.23
2023-03-04T08:13:48.399Z,29.88
2023-03-04T08:16:19.794Z,29.05
2023-03-04T08:18:49.684Z,28.27
2023-03-04T08:21:21.510Z,29.70
2023-03-04T08:23:49.325Z,31.05
2023-03-04T08:26:21.497Z,29.13
2023-03-04T08:28:48.867Z,29.67
2023-03-04T08:31:18.396Z,30.88
2023-03-04T08:33:46.687Z,28.52
2023-03-04T08:36:14.914Z,30.02
2023-03-04T08:38:42.263Z,29.75
2023-03-04T08:41:09.356Z,29.25
2023-03-04T08:43:36.339Z,31.90
2023-03-04T08:46:04.593Z,32.10
2023-03-04T08:48:31.541Z,33.38
2023-03-04T08:50:58.836Z,31.55
2023-03-04T08:53:25.920Z,32.20
2023-03-04T08:55:53.446Z,31.75
2023-03-04T08:58:21.065Z,32.88
2023-03-04T09:00:49.446Z,31.88
2023-03-04T09:03:16.889Z,32.47
2023-03-04T09:05:45.375Z,32.38
2023-03-04T09:08:13.182Z,31.33
2023-03-04T09:10:52.414Z,32.45
2023-03-04T09:13:19.380Z,32.88
2023-03-04T09:15:47.794Z,33.67
2023-03-04T09:18:16.287Z,33.00
2023-03-04T09:20:43.082Z,34.05
2023-03-04T09:23:10.508Z,32.30
2023-03-04T09:25:38.841Z,32.70
2023-03-04T09:28:07.085Z,31.77
2023-03-04T09:30:35.132Z,32.95
2023-03-04T09:33:02.622Z,32.15
2023-03-04T09:35:30.078Z,33.63
2023-03-04T09:37:57.999Z,32.13
2023-03-04T09:40:51.341Z,32.97
2023-03-04T09:43:29.611Z,32.35
2023-03-04T09:46:05.500Z,29.50
2023-03-04T09:48:40.679Z,30.38
2023-03-04T09:51:52.761Z,28.35
2023-03-04T09:54:25.327Z,29.30
2023-03-04T09:56:59.008Z,29.08
2023-03-04T09:59:32.237Z,29.50
2023-03-04T10:02:03.357Z,29.27
2023-03-04T10:04:48.777Z,27.92
2023-03-04T10:07:41.500Z,28.90
2023-03-04T10:10:16.827Z,27.25
2023-03-04T10:12:48.180Z,26.65
2023-03-04T10:15:36.908Z,27.83
2023-03-04T10:18:27.724Z,27.02
2023-03-04T10:20:58.330Z,27.45
2023-03-04T10:23:28.737Z,27.73
2023-03-04T10:25:56.699Z,27.08
2023-03-04T10:28:29.261Z,28.25
2023-03-04T10:31:08.214Z,26.98
2023-03-04T10:33:38.306Z,26.80
2023-03-04T10:36:26.901Z,28.70
2023-03-04T10:38:57.316Z,26.88
2023-03-04T10:41:27.922Z,26.98
2023-03-04T10:44:20.904Z,27.23
2023-03-04T10:46:49.365Z,27.73
2023-03-04T10:49:19.453Z,26.50
2023-03-04T10:52:04.132Z,25.52
2023-03-04T10:54:33.789Z,25.98
2023-03-04T10:57:06.523Z,26.02
2023-03-04T10:59:44.301Z,26.25
2023-03-04T11:02:26.917Z,26.02
2023-03-04T11:04:57.132Z,25.20
2023-03-04T11:07:26.540Z,25.30
2023-03-04T11:09:53.583Z,24.33
2023-03-04T11:12:31.391Z,23.55
2023-03-04T11:14:58.838Z,23.15
2023-03-04T11:17:47.790Z,23.65
2023-03-04T11:20:30.103Z,22.98
2023-03-04T11:23:04.584Z,21.10
2023-03-04T11:25:40.360Z,23.67
2023-03-04T11:28:13.987Z,19.88
2023-03-04T11:30:50.466Z,22.10
2023-03-04T11:33:23.279Z,22.30
2023-03-04T11:36:30.321Z,21.98
2023-03-04T11:38:58.362Z,22.98
2023-03-04T11:41:43.040Z,22.95
2023-03-04T11:44:13.032Z,20.42
2023-03-04T11:46:58.707Z,20.15
2023-03-04T11:49:38.086Z,22.58
2023-03-04T11:52:36.925Z,20.10
2023-03-04T11:55:43.908Z,20.85
2023-03-04T11:58:36.900Z,20.50
2023-03-04T12:01:28.334Z,21.27
2023-03-04T12:04:17.813Z,20.67
2023-03-04T12:07:01.204Z,21.80
2023-03-04T12:09:41.583Z,20.65
2023-03-04T12:12:29.476Z,20.67
2023-03-04T12:15:24.100Z,20.92
2023-03-04T12:18:16.040Z,21.92
2023-03-04T12:21:11.809Z,20.75
2023-03-04T12:23:49.535Z,20.88
2023-03-04T12:26:40.178Z,20.98
2023-03-04T12:29:21.217Z,19.98
2023-03-04T12:31:54.262Z,20.92
2023-03-04T12:34:36.264Z,19.92
2023-03-04T12:37:17.039Z,20.42
2023-03-04T12:40:21.830Z,19.42
2023-03-04T12:43:07.936Z,18.98
2023-03-04T12:45:55.071Z,20.35
2023-03-04T12:48:33.496Z,19.55
2023-03-04T12:51:15.360Z,18.88
2023-03-04T12:53:53.777Z,19.92
2023-03-04T12:56:37.447Z,20.55
2023-03-04T12:59:06.980Z,20.45
2023-03-04T13:01:46.321Z,19.88
2023-03-04T13:04:34.750Z,20.35
2023-03-04T13:07:21.762Z,20.75
2023-03-04T13:09:55.068Z,20.10
2023-03-04T13:12:24.170Z,19.60
2023-03-04T13:15:08.951Z,20.65
2023-03-04T13:17:51.726Z,20.08
2023-03-04T13:20:32.276Z,19.55
2023-03-04T13:23:01.035Z,19.38
2023-03-04T13:25:45.294Z,19.40
2023-03-04T13:28:32.088Z,20.30
2023-03-04T13:30:59.500Z,19.00
2023-03-04T13:33:26.809Z,20.48
2023-03-04T13:36:04.144Z,19.33
2023-03-04T13:38:31.083Z,19.80
2023-03-04T13:41:19.302Z,20.38
2023-03-04T13:43:52.873Z,20.90
2023-03-04T13:46:19.662Z,20.42
2023-03-04T13:48:50.504Z,20.02
2023-03-04T13:51:45.208Z,20.23
2023-03-04T13:54:27.559Z,20.90
2023-03-04T13:57:00.521Z,21.35
2023-03-04T13:59:30.221Z,19.95
2023-03-04T14:02:15.824Z,20.77
2023-03-04T14:05:02.122Z,21.67
2023-03-04T14:07:35.141Z,20.30
2023-03-04T14:10:05.231Z,19.58
2023-03-04T14:13:05.918Z,19.45
2023-03-04T14:15:35.260Z,19.67
2023-03-04T14:18:04.245Z,20.25
2023-03-04T14:20:39.154Z,18.85
2023-03-04T14:23:26.496Z,19.58
2023-03-04T14:26:06.098Z,19.20
2023-03-04T14:28:33.065Z,20.05
2023-03-04T14:31:00.028Z,20.27
2023-03-04T14:33:29.498Z,18.80
2023-03-04T14:36:01.960Z,19.13
2023-03-04T14:38:31.465Z,19.83
2023-03-04T14:41:05.630Z,19.33
2023-03-04T14:43:45.294Z,18.30
2023-03-04T14:46:15.574Z,19.65
2023-03-04T14:48:49.162Z,18.33
2023-03-04T14:51:38.553Z,18.83
2023-03-04T14:54:05.884Z,18.92
2023-03-04T14:56:36.015Z,18.83
2023-03-04T14:59:03.160Z,20.75
2023-03-04T15:01:35.644Z,20.10
2023-03-04T15:04:07.924Z,20.15
2023-03-04T15:06:38.781Z,20.17
2023-03-04T15:09:20.765Z,20.95
2023-03-04T15:11:55.011Z,20.77
2023-03-04T15:15:01.433Z,19.80
2023-03-04T15:17:39.457Z,19.90
2023-03-04T15:20:06.191Z,21.25
2023-03-04T15:22:35.038Z,19.85
2023-03-04T15:25:02.071Z,21.63
2023-03-04T15:27:30.466Z,21.00
2023-03-04T15:29:59.723Z,20.50
2023-03-04T15:32:28.410Z,20.80
2023-03-04T15:34:55.965Z,20.95
2023-03-04T15:37:26.681Z,21.60
2023-03-04T15:39:56.300Z,27.50
2023-03-04T15:42:23.623Z,19.88
2023-03-04T15:44:50.406Z,20.63
2023-03-04T15:47:17.292Z,22.30
2023-03-04T15:49:47.446Z,25.27
2023-03-04T15:52:22.445Z,23.35
2023-03-04T15:54:49.708Z,21.48
2023-03-04T15:57:34.729Z,23.52
2023-03-04T16:00:01.586Z,23.48
2023-03-04T16:02:38.395Z,23.30
2023-03-04T16:05:07.209Z,26.98
2023-03-04T16:07:35.881Z,24.42
2023-03-04T16:10:10.692Z,25.30
2023-03-04T16:12:37.742Z,24.50
2023-03-04T16:15:14.205Z,25.50
2023-03-04T16:17:43.982Z,25.98
2023-03-04T16:20:13.761Z,22.15
2023-03-04T16:22:42.500Z,24.55
2023-03-04T16:25:14.279Z,24.42
2023-03-04T16:27:41.671Z,24.15
2023-03-04T16:30:15.294Z,24.75
2023-03-04T16:32:42.273Z,25.02
2023-03-04T16:35:10.163Z,25.98
2023-03-04T16:37:37.749Z,24.77
2023-03-04T16:40:05.993Z,25.00
2023-03-04T16:42:33.035Z,26.02
2023-03-04T16:45:00.018Z,26.50
2023-03-04T16:47:28.051Z,26.33
2023-03-04T16:49:55.166Z,26.60
2023-03-04T16:52:26.740Z,26.48
2023-03-04T16:54:53.758Z,27.92
2023-03-04T16:57:20.808Z,26.58
2023-03-04T16:59:47.760Z,28.02
2023-03-04T17:02:21.584Z,26.50
2023-03-04T17:04:50.491Z,29.02
2023-03-04T17:07:17.541Z,30.08
2023-03-04T17:09:44.434Z,27.83
2023-03-04T17:12:12.432Z,30.05
2023-03-04T17:14:40.027Z,29.20
2023-03-04T17:17:07.351Z,28.45
2023-03-04T17:19:34.140Z,30.70
2023-03-04T17:22:02.264Z,29.85
2023-03-04T17:24:29.221Z,34.55
2023-03-04T17:26:56.354Z,31.73
2023-03-04T17:29:23.226Z,32.92
2023-03-04T17:31:50.049Z,29.52
2023-03-04T17:34:18.326Z,31.42
2023-03-04T17:36:45.808Z,27.95
2023-03-04T17:39:13.328Z,29.02
2023-03-04T17:41:40.333Z,28.27
2023-03-04T17:44:07.126Z,27.58
2023-03-04T17:46:34.274Z,29.90
2023-03-04T17:49:01.531Z,29.25
2023-03-04T17:51:37.049Z,27.80
2023-03-04T17:54:05.753Z,28.15
2023-03-04T17:56:33.346Z,26.55
2023-03-04T17:59:02.443Z,28.48
2023-03-04T18:01:29.830Z,30.15
2023-03-04T18:03:56.763Z,29.00
2023-03-04T18:06:25.136Z,27.17
2023-03-04T18:08:52.798Z,28.67
2023-03-04T18:11:24.812Z,30.17
2023-03-04T18:13:52.496Z,30.58
2023-03-04T18:16:24.042Z,30.60
2023-03-04T18:18:51.175Z,29.33
2023-03-04T18:21:19.633Z,30.30
2023-03-04T18:23:46.581Z,29.15
2023-03-04T18:26:14.163Z,29.42
2023-03-04T18:28:41.015Z,30.48
2023-03-04T18:31:07.768Z,29.58
2023-03-04T18:33:35.062Z,30.90
2023-03-04T18:36:05.257Z,30.05
2023-03-04T18:38:32.648Z,30.92
2023-03-04T18:41:01.102Z,30.10
2023-03-04T18:43:28.258Z,31.48
2023-03-04T18:46:37.203Z,30.52
2023-03-04T18:49:08.639Z,30.40
2023-03-04T18:51:35.471Z,30.23
2023-03-04T18:54:02.340Z,30.40
2023-03-04T18:56:38.057Z,26.35
2023-03-04T18:59:10.954Z,30.42
2023-03-04T19:01:37.875Z,32.17
2023-03-04T19:04:05.731Z,29.33
2023-03-04T19:06:34.711Z,34.53
2023-03-04T19:09:01.939Z,30.13
2023-03-04T19:11:29.923Z,29.42
2023-03-04T19:13:56.955Z,34.50
2023-03-04T19:16:24.549Z,36.70
2023-03-04T19:18:51.453Z,30.95
2023-03-04T19:21:18.285Z,28.48
2023-03-04T19:23:45.253Z,27.48
2023-03-04T19:26:13.865Z,26.65
2023-03-04T19:28:41.030Z,27.27
2023-03-04T19:31:09.182Z,26.95
2023-03-04T19:33:36.643Z,27.30
2023-03-04T19:36:06.379Z,27.73
2023-03-04T19:38:33.998Z,27.23
2023-03-04T19:41:09.024Z,25.08
2023-03-04T19:43:37.055Z,25.10
2023-03-04T19:46:04.462Z,24.60
2023-03-04T19:48:31.786Z,27.33
2023-03-04T19:50:59.835Z,25.73
2023-03-04T19:53:26.958Z,26.27
2023-03-04T19:55:54.014Z,24.67
2023-03-04T19:58:22.062Z,25.27
2023-03-04T20:00:50.235Z,25.30
2023-03-04T20:03:17.252Z,25.27
2023-03-04T20:05:46.398Z,24.20
2023-03-04T20:08:13.650Z,25.13
2023-03-04T20:10:41.065Z,24.25
2023-03-04T20:13:08.989Z,27.77
2023-03-04T20:15:36.083Z,24.75
2023-03-04T20:18:03.509Z,25.33
2023-03-04T20:20:30.240Z,25.45
2023-03-04T20:22:57.371Z,25.00
2023-03-04T20:25:25.157Z,25.50
2023-03-04T20:27:52.345Z,23.63
2023-03-04T20:30:19.209Z,24.20
2023-03-04T20:32:46.183Z,22.88
2023-03-04T20:35:15.194Z,25.67
2023-03-04T20:37:42.893Z,25.38
2023-03-04T20:40:11.112Z,24.00
2023-03-04T20:42:38.152Z,24.80
2023-03-04T20:45:06.027Z,25.63
2023-03-04T20:47:32.901Z,23.77
2023-03-04T20:49:59.775Z,24.00
2023-03-04T20:52:26.773Z,24.95
2023-03-04T20:54:53.692Z,26.40
2023-03-04T20:57:20.714Z,25.15
2023-03-04T20:59:47.591Z,25.75
2023-03-04T21:02:17.169Z,24.73
2023-03-04T21:04:44.198Z,25.02
2023-03-04T21:07:12.320Z,32.92
2023-03-04T21:09:39.269Z,29.88
2023-03-04T21:12:06.404Z,25.63
2023-03-04T21:14:33.680Z,26.27
2023-03-04T21:17:03.934Z,26.45
2023-03-04T21:19:34.591Z,28.48
2023-03-04T21:22:01.756Z,27.30
2023-03-04T21:24:31.302Z,29.48
2023-03-04T21:27:01.504Z,29.95
2023-03-04T21:29:29.002Z,29.27
2023-03-04T21:32:20.843Z,29.52
2023-03-04T21:34:52.062Z,28.83
2023-03-04T21:37:20.640Z,30.70
2023-03-04T21:39:47.435Z,29.55
2023-03-04T21:42:14.403Z,29.45
2023-03-04T21:44:51.808Z,28.15
2023-03-04T21:47:20.962Z,28.70
2023-03-04T21:49:48.213Z,30.50
2023-03-04T21:52:15.902Z,31.63
2023-03-04T21:54:42.988Z,29.63
2023-03-04T21:57:10.143Z,30.05
2023-03-04T21:59:38.660Z,29.13
2023-03-04T22:02:06.693Z,30.02
2023-03-04T22:04:33.812Z,29.60
2023-03-04T22:07:02.002Z,29.23
2023-03-04T22:09:29.115Z,28.58
2023-03-04T22:11:56.449Z,28.83
2023-03-04T22:14:23.338Z,28.85
2023-03-04T22:16:55.620Z,28.60
2023-03-04T22:19:30.609Z,31.85
2023-03-04T22:21:59.097Z,31.05
2023-03-04T22:24:26.374Z,31.65
2023-03-04T22:26:53.509Z,31.27
2023-03-04T22:29:20.356Z,30.15
2023-03-04T22:31:47.808Z,30.08
2023-03-04T22:34:16.272Z,31.55
2023-03-04T22:36:45.390Z,30.67
2023-03-04T22:39:14.725Z,32.25
2023-03-04T22:41:42.036Z,31.67
2023-03-04T22:44:09.509Z,30.52
2023-03-04T22:46:38.684Z,31.83
2023-03-04T22:49:11.985Z,31.67
2023-03-04T22:51:44.055Z,32.28
2023-03-04T22:54:16.221Z,30.13
2023-03-04T22:56:43.747Z,35.67
2023-03-04T22:59:10.903Z,35.38
2023-03-04T23:01:37.789Z,39.55
2023-03-04T23:04:04.778Z,37.15
2023-03-04T23:06:31.848Z,34.17
2023-03-04T23:08:59.740Z,34.95
2023-03-04T23:11:29.541Z,33.95
2023-03-04T23:14:02.193Z,33.13
2023-03-04T23:16:29.343Z,31.40
2023-03-04T23:18:59.191Z,31.10
2023-03-04T23:21:28.345Z,30.50
2023-03-04T23:23:56.089Z,29.95
2023-03-04T23:26:29.152Z,31.00
2023-03-04T23:28:57.204Z,30.75
2023-03-04T23:31:25.621Z,28.13
2023-03-04T23:33:57.496Z,30.08
2023-03-04T23:36:33.006Z,28.67
2023-03-04T23:39:00.445Z,30.23
2023-03-04T23:41:29.698Z,29.25
2023-03-04T23:43:58.524Z,32.15
2023-03-04T23:46:26.923Z,29.10
2023-03-04T23:48:54.781Z,30.05
2023-03-04T23:51:24.773Z,31.40
2023-03-04T23:53:51.871Z,29.05
2023-03-04T23:56:21.999Z,28.58
2023-03-04T23:58:49.136Z,30.17
